Naples, Italy

8:47 AM CEST on June 03, 2015 (GMT +0200)
Naples | | Change Station
CLOSE
Current Station
Personal Weather Station
Location: Naples, Campania
Elevation: 108 ft
Nearby Weather Stations

Elev 108 ft 40.84 °N, 14.25 °E | Updated 2 minutes ago

Mist
Mist
73.9 °F
Feels Like 77 °F
N
0.0
Wind Variable Wind from WSW
Gusts 0.0 mph

Today
High -- | Low -- °F
--% Chance of Precip.
Yesterday
High -- | Low -- °F
Precip. -- in
5:32 AM 8:29 PM
Full, 100% visible
Pressure 30.15 in
Visibility 3.1 miles
Clouds
Heat Index 77 °F
Dew Point 58 °F
Humidity 57%
Rainfall 0.00 in
Snow Depth Not available.
UV Not available.
Pollen Not available.
Air Quality Not available.
Flu Activity Not available.
METAR LIRN 030620Z VRB01KT 5000 BR NSC 23/18 Q1021

More Conditions Fewer Conditions

Pressure 30.15 in
Visibility 3.1 miles
Clouds
Heat Index 77 °F
Dew Point 58 °F
Humidity 57%
Rainfall 0.00 in
Snow Depth Not available.
UV Not available.
Pollen Not available.
Air Quality Not available.
Flu Activity Not available.
METAR LIRN 030620Z VRB01KT 5000 BR NSC 23/18 Q1021

More Conditions Fewer Conditions

10-Day Weather Forecast

×

Almanac

Astronomy

Jun. 03, 2015 Rise Set
Actual Time
Civil Twilight
Nautical Twilight
Astronomical Twilight
Moon
Length of Visible Light
Length of Day
Tomorrow will be .
, % of the Moon is Illuminated

Today's Extremes

Country Highs Country Lows

Community

WunderPhotos

Upload Photos

1,826,185 photos uploaded!

WunderBlogs® & News

Nearby

Air Quality

  Air Quality AQ Index Pollutant
Not available.

Snow Depth

Station Depth Elevation

Earthquake Activity

City Distance Mag. Time & Date
Minimum magnitude displayed is 2.5.

Coastal Water Temperatures

Place Temperature

Stations

Nearby Weather Stations

Station Location Temp. Windchill Dew Point Humidity Wind Precip. Elev Updated Type